Time,TemperatureF,DewpointF,PressureIn,WindDirection,WindDirectionDegrees,WindSpeedMPH,WindSpeedGustMPH,Humidity,HourlyPrecipIn,Conditions,Clouds,dailyrainin,SoftwareType,DateUTC
2013-06-30 00:00:00,62.3,44.9,29.57,West,270,2.7,3.1,53,0.00,,,0.00,WUHU216HW,2013-06-30 07:00:00,
2013-06-30 00:05:00,62.3,45.4,29.57,SW,225,3.1,4.0,54,0.00,,,0.00,WUHU216HW,2013-06-30 07:05:00,
2013-06-30 00:10:00,61.9,45.6,29.57,WSW,248,2.7,4.3,55,0.00,,,0.00,WUHU216HW,2013-06-30 07:10:00,
2013-06-30 00:15:00,61.6,45.7,29.57,WSW,248,1.8,4.3,56,0.00,,,0.00,WUHU216HW,2013-06-30 07:15:00,
2013-06-30 00:20:00,61.4,45.6,29.57,ENE,68,1.1,2.5,56,0.00,,,0.00,WUHU216HW,2013-06-30 07:20:00,
2013-06-30 00:25:00,61.0,45.7,29.57,WSW,248,0.0,3.1,57,0.00,,,0.00,WUHU216HW,2013-06-30 07:25:00,
2013-06-30 00:30:00,60.8,45.6,29.57,West,270,0.0,3.1,57,0.00,,,0.00,WUHU216HW,2013-06-30 07:30:00,
2013-06-30 00:35:00,60.7,45.8,29.57,West,270,0.9,3.1,58,0.00,,,0.00,WUHU216HW,2013-06-30 07:35:00,
2013-06-30 00:40:00,60.5,45.6,29.57,SSW,203,1.1,2.5,58,0.00,,,0.00,WUHU216HW,2013-06-30 07:40:00,
2013-06-30 00:45:00,60.5,46.2,29.57,WSW,248,3.4,3.4,59,0.00,,,0.00,WUHU216HW,2013-06-30 07:45:00,
2013-06-30 00:50:00,60.3,45.5,29.57,NE,45,0.0,3.4,58,0.00,,,0.00,WUHU216HW,2013-06-30 07:50:00,
2013-06-30 00:55:00,60.1,45.8,29.57,NW,315,1.8,4.0,59,0.00,,,0.00,WUHU216HW,2013-06-30 07:55:00,
2013-06-30 01:00:00,59.8,45.5,29.57,SW,225,1.1,4.0,59,0.00,,,0.00,WUHU216HW,2013-06-30 08:00:00,
2013-06-30 01:05:00,59.4,45.5,29.57,ESE,113,2.0,2.0,60,0.00,,,0.00,WUHU216HW,2013-06-30 08:05:00,
2013-06-30 01:10:00,59.0,45.2,29.57,SE,135,0.9,2.0,60,0.00,,,0.00,WUHU216HW,2013-06-30 08:10:00,
2013-06-30 01:15:00,58.9,45.0,29.57,SW,225,0.0,2.2,60,0.00,,,0.00,WUHU216HW,2013-06-30 08:15:00,
2013-06-30 01:20:00,58.7,44.8,29.57,SSW,203,0.7,2.2,60,0.00,,,0.00,WUHU216HW,2013-06-30 08:20:00,
2013-06-30 01:25:00,58.5,44.7,29.57,East,90,0.4,1.3,60,0.00,,,0.00,WUHU216HW,2013-06-30 08:25:00,
2013-06-30 01:30:00,58.3,44.9,29.56,NNW,338,1.1,1.3,61,0.00,,,0.00,WUHU216HW,2013-06-30 08:30:00,
2013-06-30 01:35:00,58.1,44.8,29.56,North,0,0.4,1.1,61,0.00,,,0.00,WUHU216HW,2013-06-30 08:35:00,
2013-06-30 01:40:00,58.0,45.0,29.56,North,0,0.7,0.9,62,0.00,,,0.00,WUHU216HW,2013-06-30 08:40:00,
2013-06-30 01:45:00,58.0,45.0,29.57,ESE,113,1.3,1.3,62,0.00,,,0.00,WUHU216HW,2013-06-30 08:45:00,
2013-06-30 01:50:00,58.0,45.0,29.56,NNW,338,1.1,2.0,62,0.00,,,0.00,WUHU216HW,2013-06-30 08:50:00,
2013-06-30 01:55:00,57.8,44.8,29.56,North,0,0.7,2.5,62,0.00,,,0.00,WUHU216HW,2013-06-30 08:55:00,
2013-06-30 02:00:00,57.6,45.1,29.56,North,0,0.9,2.5,63,0.00,,,0.00,WUHU216HW,2013-06-30 09:00:00,
2013-06-30 02:05:00,57.2,44.7,29.56,WSW,248,0.4,1.6,63,0.00,,,0.00,WUHU216HW,2013-06-30 09:05:00,
2013-06-30 02:10:00,57.2,44.7,29.56,South,180,0.4,1.3,63,0.00,,,0.00,WUHU216HW,2013-06-30 09:10:00,
2013-06-30 02:15:00,57.1,45.0,29.56,NE,45,0.7,2.2,64,0.00,,,0.00,WUHU216HW,2013-06-30 09:15:00,
2013-06-30 02:20:00,56.7,44.7,29.56,SSW,203,0.7,3.4,64,0.00,,,0.00,WUHU216HW,2013-06-30 09:20:00,
2013-06-30 02:25:00,56.3,44.3,29.56,East,90,0.2,3.4,64,0.00,,,0.00,WUHU216HW,2013-06-30 09:25:00,
2013-06-30 02:30:00,56.0,43.9,29.56,NNE,23,2.2,2.2,64,0.00,,,0.00,WUHU216HW,2013-06-30 09:30:00,
2013-06-30 02:35:00,55.8,44.6,29.56,ENE,68,0.7,2.2,66,0.00,,,0.00,WUHU216HW,2013-06-30 09:35:00,
2013-06-30 02:40:00,55.4,44.3,29.56,SW,225,0.4,1.3,66,0.00,,,0.00,WUHU216HW,2013-06-30 09:40:00,
2013-06-30 02:45:00,55.3,44.1,29.56,SW,225,0.9,1.3,66,0.00,,,0.00,WUHU216HW,2013-06-30 09:45:00,
2013-06-30 02:50:00,55.1,44.3,29.56,East,90,0.0,0.9,67,0.00,,,0.00,WUHU216HW,2013-06-30 09:50:00,
2013-06-30 02:55:00,54.9,44.1,29.56,WSW,248,1.8,1.8,67,0.00,,,0.00,WUHU216HW,2013-06-30 09:55:00,
2013-06-30 03:00:00,54.7,43.9,29.56,WNW,293,1.1,1.8,67,0.00,,,0.00,WUHU216HW,2013-06-30 10:00:00,
2013-06-30 03:05:00,54.7,44.4,29.56,ENE,68,0.0,1.8,68,0.00,,,0.00,WUHU216HW,2013-06-30 10:05:00,
2013-06-30 03:10:00,54.4,44.0,29.56,North,0,1.3,1.8,68,0.00,,,0.00,WUHU216HW,2013-06-30 10:10:00,
2013-06-30 03:15:00,54.2,44.3,29.56,NNW,338,1.1,1.8,69,0.00,,,0.00,WUHU216HW,2013-06-30 10:15:00,
2013-06-30 03:20:00,54.2,44.3,29.56,SE,135,0.4,1.8,69,0.00,,,0.00,WUHU216HW,2013-06-30 10:20:00,
2013-06-30 03:25:00,54.2,44.3,29.56,East,90,1.1,1.3,69,0.00,,,0.00,WUHU216HW,2013-06-30 10:25:00,
2013-06-30 03:30:00,54.0,44.1,29.56,NNW,338,1.3,1.8,69,0.00,,,0.00,WUHU216HW,2013-06-30 10:30:00,
2013-06-30 03:36:00,53.8,43.9,29.55,North,0,0.2,1.8,69,0.00,,,0.00,WUHU216HW,2013-06-30 10:36:00,
2013-06-30 03:41:00,53.6,43.8,29.55,NW,315,1.3,1.3,69,0.00,,,0.00,WUHU216HW,2013-06-30 10:41:00,
2013-06-30 03:46:00,53.6,44.1,29.55,North,0,0.4,1.3,70,0.00,,,0.00,WUHU216HW,2013-06-30 10:46:00,
2013-06-30 03:51:00,53.6,44.5,29.55,North,0,0.4,1.8,71,0.00,,,0.00,WUHU216HW,2013-06-30 10:51:00,
2013-06-30 03:56:00,53.5,44.3,29.55,North,0,0.4,1.8,71,0.00,,,0.00,WUHU216HW,2013-06-30 10:56:00,
2013-06-30 04:01:00,53.5,43.9,29.55,ENE,68,0.0,0.9,70,0.00,,,0.00,WUHU216HW,2013-06-30 11:01:00,
2013-06-30 04:06:00,53.3,44.1,29.55,ENE,68,0.0,0.7,71,0.00,,,0.00,WUHU216HW,2013-06-30 11:06:00,
2013-06-30 04:11:00,53.1,44.3,29.55,NNW,338,1.3,1.3,72,0.00,,,0.00,WUHU216HW,2013-06-30 11:11:00,
2013-06-30 04:16:00,53.1,44.0,29.55,South,180,0.0,1.8,71,0.00,,,0.00,WUHU216HW,2013-06-30 11:16:00,
2013-06-30 04:21:00,52.9,44.2,29.55,NNW,338,0.9,1.8,72,0.00,,,0.00,WUHU216HW,2013-06-30 11:21:00,
2013-06-30 04:26:00,52.9,43.8,29.55,West,270,0.0,1.6,71,0.00,,,0.00,WUHU216HW,2013-06-30 11:26:00,
2013-06-30 04:31:00,52.6,43.8,29.55,SSE,158,0.9,1.8,72,0.00,,,0.00,WUHU216HW,2013-06-30 11:31:00,
2013-06-30 04:36:00,52.2,43.5,29.55,North,0,0.7,1.8,72,0.00,,,0.00,WUHU216HW,2013-06-30 11:36:00,
2013-06-30 04:41:00,52.0,43.3,29.55,WSW,248,0.4,1.3,72,0.00,,,0.00,WUHU216HW,2013-06-30 11:41:00,
2013-06-30 04:46:00,52.0,43.3,29.55,West,270,0.2,1.3,72,0.00,,,0.00,WUHU216HW,2013-06-30 11:46:00,
2013-06-30 04:51:00,52.0,43.3,29.55,NNW,338,0.7,1.1,72,0.00,,,0.00,WUHU216HW,2013-06-30 11:51:00,
2013-06-30 04:56:00,52.0,43.3,29.55,NW,315,1.1,1.3,72,0.00,,,0.00,WUHU216HW,2013-06-30 11:56:00,
2013-06-30 05:01:00,52.0,43.3,29.55,NNW,338,0.9,1.3,72,0.00,,,0.00,WUHU216HW,2013-06-30 12:01:00,
2013-06-30 05:06:00,52.0,43.3,29.55,NNW,338,0.7,1.1,72,0.00,,,0.00,WUHU216HW,2013-06-30 12:06:00,
2013-06-30 05:11:00,51.8,43.2,29.55,NNW,338,1.6,1.6,72,0.00,,,0.00,WUHU216HW,2013-06-30 12:11:00,
2013-06-30 05:16:00,51.8,43.5,29.55,NW,315,0.7,1.6,73,0.00,,,0.00,WUHU216HW,2013-06-30 12:16:00,
2013-06-30 05:21:00,51.7,43.3,29.55,NNW,338,1.6,1.6,73,0.00,,,0.00,WUHU216HW,2013-06-30 12:21:00,
2013-06-30 05:26:00,51.7,43.3,29.56,WNW,293,1.3,1.6,73,0.00,,,0.00,WUHU216HW,2013-06-30 12:26:00,
2013-06-30 05:31:00,51.5,43.1,29.56,NW,315,1.6,1.6,73,0.00,,,0.00,WUHU216HW,2013-06-30 12:31:00,
2013-06-30 05:36:00,51.5,43.1,29.56,NNW,338,1.1,1.6,73,0.00,,,0.00,WUHU216HW,2013-06-30 12:36:00,
2013-06-30 05:41:00,51.3,43.7,29.56,NNW,338,1.3,1.6,75,0.00,,,0.00,WUHU216HW,2013-06-30 12:41:00,
2013-06-30 05:46:00,51.3,43.7,29.56,ENE,68,0.7,1.6,75,0.00,,,0.00,WUHU216HW,2013-06-30 12:46:00,
2013-06-30 05:51:00,51.1,43.5,29.56,NW,315,0.9,1.6,75,0.00,,,0.00,WUHU216HW,2013-06-30 12:51:00,
2013-06-30 05:56:00,51.1,43.5,29.56,NNW,338,1.1,1.6,75,0.00,,,0.00,WUHU216HW,2013-06-30 12:56:00,
2013-06-30 06:01:00,51.1,43.5,29.56,NW,315,0.0,1.3,75,0.00,,,0.00,WUHU216HW,2013-06-30 13:01:00,
2013-06-30 06:06:00,51.1,43.8,29.56,NW,315,0.4,1.6,76,0.00,,,0.00,WUHU216HW,2013-06-30 13:06:00,
2013-06-30 06:11:00,51.3,44.0,29.56,NNW,338,1.3,1.6,76,0.00,,,0.00,WUHU216HW,2013-06-30 13:11:00,
2013-06-30 06:16:00,51.5,44.2,29.56,NNW,338,0.4,1.3,76,0.00,,,0.00,WUHU216HW,2013-06-30 13:16:00,
2013-06-30 06:21:00,52.0,44.4,29.56,NNW,338,0.2,1.1,75,0.00,,,0.00,WUHU216HW,2013-06-30 13:21:00,
2013-06-30 06:26:00,54.9,47.8,29.56,NNW,338,0.4,0.9,77,0.00,,,0.00,WUHU216HW,2013-06-30 13:26:00,
2013-06-30 06:31:00,59.8,51.1,29.56,NNW,338,0.7,1.1,73,0.00,,,0.00,WUHU216HW,2013-06-30 13:31:00,
2013-06-30 06:36:00,63.7,52.6,29.56,NNW,338,1.1,1.1,67,0.00,,,0.00,WUHU216HW,2013-06-30 13:36:00,
2013-06-30 06:41:00,67.0,53.6,29.56,NNW,338,0.9,1.1,62,0.00,,,0.00,WUHU216HW,2013-06-30 13:41:00,
2013-06-30 06:46:00,67.3,52.5,29.57,NNW,338,0.9,1.1,59,0.00,,,0.00,WUHU216HW,2013-06-30 13:46:00,
2013-06-30 06:51:00,66.8,51.6,29.57,NNW,338,0.0,0.9,58,0.00,,,0.00,WUHU216HW,2013-06-30 13:51:00,
2013-06-30 06:56:00,66.8,51.6,29.56,NNW,338,1.1,1.1,58,0.00,,,0.00,WUHU216HW,2013-06-30 13:56:00,
2013-06-30 07:01:00,67.3,51.6,29.56,NNW,338,0.0,1.1,57,0.00,,,0.00,WUHU216HW,2013-06-30 14:01:00,
2013-06-30 07:06:00,65.9,50.7,29.57,NNW,338,0.0,0.9,58,0.00,,,0.00,WUHU216HW,2013-06-30 14:06:00,
2013-06-30 07:11:00,65.3,50.7,29.56,ESE,113,1.1,1.1,59,0.00,,,0.00,WUHU216HW,2013-06-30 14:11:00,
2013-06-30 07:16:00,65.2,50.5,29.56,ESE,113,1.1,1.6,59,0.00,,,0.00,WUHU216HW,2013-06-30 14:16:00,
2013-06-30 07:21:00,64.8,50.6,29.56,SSE,158,1.6,1.8,60,0.00,,,0.00,WUHU216HW,2013-06-30 14:21:00,
2013-06-30 07:26:00,65.0,51.2,29.56,SE,135,1.6,2.0,61,0.00,,,0.00,WUHU216HW,2013-06-30 14:26:00,
2013-06-30 07:31:00,65.2,51.4,29.56,SE,135,1.1,2.2,61,0.00,,,0.00,WUHU216HW,2013-06-30 14:31:00,
2013-06-30 07:36:00,65.3,51.6,29.56,SSE,158,1.6,2.2,61,0.00,,,0.00,WUHU216HW,2013-06-30 14:36:00,
2013-06-30 07:41:00,65.7,51.9,29.56,SE,135,2.0,2.0,61,0.00,,,0.00,WUHU216HW,2013-06-30 14:41:00,
2013-06-30 07:46:00,65.9,52.1,29.57,SSE,158,1.8,2.0,61,0.00,,,0.00,WUHU216HW,2013-06-30 14:46:00,
2013-06-30 07:51:00,66.1,52.3,29.57,SSE,158,0.9,2.0,61,0.00,,,0.00,WUHU216HW,2013-06-30 14:51:00,
2013-06-30 07:56:00,66.4,52.6,29.56,SE,135,2.9,2.9,61,0.00,,,0.00,WUHU216HW,2013-06-30 14:56:00,
2013-06-30 08:01:00,66.8,52.9,29.57,SE,135,2.7,4.0,61,0.00,,,0.00,WUHU216HW,2013-06-30 15:01:00,
2013-06-30 08:06:00,67.0,53.1,29.56,SE,135,2.0,4.0,61,0.00,,,0.00,WUHU216HW,2013-06-30 15:06:00,
2013-06-30 08:11:00,67.3,53.5,29.56,South,180,2.5,4.7,61,0.00,,,0.00,WUHU216HW,2013-06-30 15:11:00,
2013-06-30 08:16:00,67.7,53.7,29.56,SE,135,1.3,4.7,61,0.00,,,0.00,WUHU216HW,2013-06-30 15:16:00,
2013-06-30 08:21:00,68.2,53.8,29.56,South,180,2.5,4.3,60,0.00,,,0.00,WUHU216HW,2013-06-30 15:21:00,
2013-06-30 08:26:00,68.8,54.4,29.56,SSE,158,1.6,4.3,60,0.00,,,0.00,WUHU216HW,2013-06-30 15:26:00,
2013-06-30 08:31:00,69.5,54.5,29.56,SSW,203,2.5,3.8,59,0.00,,,0.00,WUHU216HW,2013-06-30 15:31:00,
2013-06-30 08:36:00,70.6,55.1,29.56,South,180,2.5,3.6,58,0.00,,,0.00,WUHU216HW,2013-06-30 15:36:00,
2013-06-30 08:41:00,71.8,56.3,29.56,SSW,203,4.0,4.0,58,0.00,,,0.00,WUHU216HW,2013-06-30 15:41:00,
2013-06-30 08:46:00,72.5,55.9,29.55,South,180,2.5,4.0,56,0.00,,,0.00,WUHU216HW,2013-06-30 15:46:00,
2013-06-30 08:51:00,72.9,56.2,29.55,South,180,2.2,3.4,56,0.00,,,0.00,WUHU216HW,2013-06-30 15:51:00,
2013-06-30 08:56:00,73.1,55.8,29.55,SE,135,1.1,3.4,55,0.00,,,0.00,WUHU216HW,2013-06-30 15:56:00,
2013-06-30 09:01:00,73.3,55.5,29.55,SE,135,4.5,4.9,54,0.00,,,0.00,WUHU216HW,2013-06-30 16:01:00,
2013-06-30 09:06:00,73.6,55.8,29.55,SE,135,3.4,4.9,54,0.00,,,0.00,WUHU216HW,2013-06-30 16:06:00,
2013-06-30 09:11:00,73.8,56.0,29.55,SE,135,1.8,4.5,54,0.00,,,0.00,WUHU216HW,2013-06-30 16:11:00,
2013-06-30 09:16:00,74.3,56.1,29.54,South,180,2.9,4.7,53,0.00,,,0.00,WUHU216HW,2013-06-30 16:16:00,
2013-06-30 09:21:00,74.5,56.3,29.54,SSE,158,4.5,4.7,53,0.00,,,0.00,WUHU216HW,2013-06-30 16:21:00,
2013-06-30 09:26:00,74.9,56.1,29.54,SSW,203,3.6,4.7,52,0.00,,,0.00,WUHU216HW,2013-06-30 16:26:00,
2013-06-30 09:31:00,75.2,56.4,29.54,ESE,113,2.5,4.7,52,0.00,,,0.00,WUHU216HW,2013-06-30 16:31:00,
2013-06-30 09:36:00,75.4,56.6,29.54,South,180,4.7,4.7,52,0.00,,,0.00,WUHU216HW,2013-06-30 16:36:00,
2013-06-30 09:41:00,75.8,56.4,29.54,South,180,2.2,4.7,51,0.00,,,0.00,WUHU216HW,2013-06-30 16:41:00,
2013-06-30 09:46:00,76.3,57.4,29.53,SE,135,4.0,5.1,52,0.00,,,0.00,WUHU216HW,2013-06-30 16:46:00,
2013-06-30 09:51:00,77.0,57.6,29.53,SSW,203,2.7,5.8,51,0.00,,,0.00,WUHU216HW,2013-06-30 16:51:00,
2013-06-30 09:56:00,77.4,57.4,29.53,SSE,158,1.1,5.8,50,0.00,,,0.00,WUHU216HW,2013-06-30 16:56:00,
2013-06-30 10:01:00,77.4,57.4,29.53,SE,135,3.4,3.6,50,0.00,,,0.00,WUHU216HW,2013-06-30 17:01:00,
2013-06-30 10:06:00,77.8,57.1,29.53,SE,135,2.5,3.4,49,0.00,,,0.00,WUHU216HW,2013-06-30 17:06:00,
2013-06-30 10:11:00,78.1,57.4,29.53,SSE,158,3.4,3.8,49,0.00,,,0.00,WUHU216HW,2013-06-30 17:11:00,
2013-06-30 10:16:00,78.5,57.2,29.52,SSE,158,4.7,4.7,48,0.00,,,0.00,WUHU216HW,2013-06-30 17:16:00,
2013-06-30 10:21:00,79.0,57.0,29.52,SSE,158,1.6,4.7,47,0.00,,,0.00,WUHU216HW,2013-06-30 17:21:00,
2013-06-30 10:26:00,79.4,56.7,29.52,South,180,1.3,4.7,46,0.00,,,0.00,WUHU216HW,2013-06-30 17:26:00,
2013-06-30 10:31:00,79.4,56.7,29.52,South,180,4.0,4.7,46,0.00,,,0.00,WUHU216HW,2013-06-30 17:31:00,
2013-06-30 10:36:00,79.6,56.3,29.52,SSW,203,3.4,4.7,45,0.00,,,0.00,WUHU216HW,2013-06-30 17:36:00,
2013-06-30 10:41:00,79.7,56.4,29.52,SE,135,3.8,4.0,45,0.00,,,0.00,WUHU216HW,2013-06-30 17:41:00,
2013-06-30 10:46:00,80.1,56.2,29.52,NNW,338,1.8,3.8,44,0.00,,,0.00,WUHU216HW,2013-06-30 17:46:00,
2013-06-30 10:51:00,80.3,56.4,29.52,NNW,338,0.9,2.2,44,0.00,,,0.00,WUHU216HW,2013-06-30 17:51:00,
2013-06-30 10:56:00,80.5,56.4,29.52,SE,135,2.5,2.5,44,0.00,,,0.00,WUHU216HW,2013-06-30 17:56:00,
2013-06-30 11:01:00,81.0,57.0,29.52,SW,225,1.8,4.3,44,0.00,,,0.00,WUHU216HW,2013-06-30 18:01:00,
2013-06-30 11:06:00,81.5,56.8,29.52,WSW,248,3.4,4.3,43,0.00,,,0.00,WUHU216HW,2013-06-30 18:06:00,
2013-06-30 11:11:00,82.1,56.7,29.52,South,180,5.4,5.4,42,0.00,,,0.00,WUHU216HW,2013-06-30 18:11:00,
2013-06-30 11:16:00,82.4,56.4,29.52,SSE,158,1.8,5.4,41,0.00,,,0.00,WUHU216HW,2013-06-30 18:16:00,
2013-06-30 11:21:00,82.8,56.7,29.52,North,0,0.9,4.7,41,0.00,,,0.00,WUHU216HW,2013-06-30 18:21:00,
2013-06-30 11:26:00,83.2,56.4,29.52,SSW,203,4.0,5.4,40,0.00,,,0.00,WUHU216HW,2013-06-30 18:26:00,
2013-06-30 11:31:00,83.3,56.6,29.51,WSW,248,1.1,5.4,40,0.00,,,0.00,WUHU216HW,2013-06-30 18:31:00,
2013-06-30 11:36:00,83.2,56.4,29.51,ENE,68,1.1,2.9,40,0.00,,,0.00,WUHU216HW,2013-06-30 18:36:00,
2013-06-30 11:42:00,83.5,56.0,29.51,SSW,203,1.1,5.4,39,0.00,,,0.00,WUHU216HW,2013-06-30 18:42:00,
2013-06-30 11:47:00,84.2,55.8,29.51,East,90,4.3,5.4,38,0.00,,,0.00,WUHU216HW,2013-06-30 18:47:00,
2013-06-30 11:52:00,84.8,56.4,29.50,NW,315,2.5,6.0,38,0.00,,,0.00,WUHU216HW,2013-06-30 18:52:00,
2013-06-30 11:57:00,85.5,54.6,29.50,SE,135,5.4,6.7,35,0.00,,,0.00,WUHU216HW,2013-06-30 18:57:00,
2013-06-30 12:02:00,86.4,55.4,29.50,ESE,113,5.4,6.7,35,0.00,,,0.00,WUHU216HW,2013-06-30 19:02:00,
2013-06-30 12:07:00,87.1,55.2,29.50,ENE,68,4.0,5.6,34,0.00,,,0.00,WUHU216HW,2013-06-30 19:07:00,
2013-06-30 12:12:00,87.1,55.2,29.50,West,270,1.6,4.3,34,0.00,,,0.00,WUHU216HW,2013-06-30 19:12:00,
2013-06-30 12:17:00,87.5,55.5,29.50,SSW,203,3.6,3.6,34,0.00,,,0.00,WUHU216HW,2013-06-30 19:17:00,
2013-06-30 12:22:00,88.6,56.4,29.50,South,180,3.6,6.3,34,0.00,,,0.00,WUHU216HW,2013-06-30 19:22:00,
2013-06-30 12:27:00,89.6,54.2,29.50,SE,135,4.7,6.9,30,0.00,,,0.00,WUHU216HW,2013-06-30 19:27:00,
2013-06-30 12:32:00,90.0,56.1,29.49,SSE,158,3.8,6.9,32,0.00,,,0.00,WUHU216HW,2013-06-30 19:32:00,
2013-06-30 12:37:00,90.2,56.3,29.49,East,90,1.3,6.3,32,0.00,,,0.00,WUHU216HW,2013-06-30 19:37:00,
2013-06-30 12:42:00,90.7,56.7,29.49,SSE,158,2.2,6.3,32,0.00,,,0.00,WUHU216HW,2013-06-30 19:42:00,
2013-06-30 12:47:00,91.1,55.4,29.49,ENE,68,3.4,4.7,30,0.00,,,0.00,WUHU216HW,2013-06-30 19:47:00,
2013-06-30 12:52:00,91.1,55.4,29.49,SSW,203,5.8,5.8,30,0.00,,,0.00,WUHU216HW,2013-06-30 19:52:00,
2013-06-30 12:57:00,91.3,52.4,29.49,NW,315,3.6,5.8,27,0.00,,,0.00,WUHU216HW,2013-06-30 19:57:00,
2013-06-30 13:07:00,92.0,55.2,29.49,South,180,0.9,3.8,29,0.00,,,0.00,WUHU216HW,2013-06-30 20:07:00,
2013-06-30 13:12:00,92.7,52.4,29.49,WNW,293,4.7,6.3,26,0.00,,,0.00,WUHU216HW,2013-06-30 20:12:00,
2013-06-30 13:17:00,92.7,49.2,29.48,NE,45,2.7,6.3,23,0.00,,,0.00,WUHU216HW,2013-06-30 20:17:00,
2013-06-30 13:22:00,92.3,51.0,29.48,SSE,158,4.3,4.3,25,0.00,,,0.00,WUHU216HW,2013-06-30 20:22:00,
2013-06-30 13:27:00,93.2,50.7,29.48,WNW,293,2.5,4.9,24,0.00,,,0.00,WUHU216HW,2013-06-30 20:27:00,
2013-06-30 13:32:00,93.8,44.9,29.48,WSW,248,3.4,5.1,19,0.00,,,0.00,WUHU216HW,2013-06-30 20:32:00,
2013-06-30 13:37:00,94.5,41.9,29.48,SE,135,4.5,8.5,17,0.00,,,0.00,WUHU216HW,2013-06-30 20:37:00,
2013-06-30 13:42:00,94.3,40.1,29.48,ESE,113,2.5,8.5,16,0.00,,,0.00,WUHU216HW,2013-06-30 20:42:00,
2013-06-30 13:47:00,94.9,44.0,29.48,SSW,203,4.3,7.2,18,0.00,,,0.00,WUHU216HW,2013-06-30 20:47:00,
2013-06-30 13:52:00,95.6,34.0,29.48,SE,135,4.0,7.2,12,0.00,,,0.00,WUHU216HW,2013-06-30 20:52:00,
2013-06-30 13:57:00,95.8,34.1,29.48,SSE,158,4.7,10.5,12,0.00,,,0.00,WUHU216HW,2013-06-30 20:57:00,
2013-06-30 14:02:00,96.3,34.6,29.48,SSW,203,4.7,11.4,12,0.00,,,0.00,WUHU216HW,2013-06-30 21:02:00,
2013-06-30 14:07:00,96.8,34.9,29.48,SSE,158,2.5,11.4,12,0.00,,,0.00,WUHU216HW,2013-06-30 21:07:00,
2013-06-30 14:12:00,97.2,35.2,29.48,SSE,158,6.7,10.7,12,0.00,,,0.00,WUHU216HW,2013-06-30 21:12:00,
2013-06-30 14:17:00,97.6,33.7,29.48,South,180,3.1,9.6,11,0.00,,,0.00,WUHU216HW,2013-06-30 21:17:00,
2013-06-30 14:22:00,97.6,33.7,29.48,South,180,3.6,9.6,11,0.00,,,0.00,WUHU216HW,2013-06-30 21:22:00,
2013-06-30 14:27:00,97.7,33.8,29.47,SSE,158,4.5,10.1,11,0.00,,,0.00,WUHU216HW,2013-06-30 21:27:00,
2013-06-30 14:32:00,97.7,33.8,29.47,SE,135,1.6,10.1,11,0.00,,,0.00,WUHU216HW,2013-06-30 21:32:00,
2013-06-30 14:37:00,97.9,35.8,29.47,SW,225,2.5,7.8,12,0.00,,,0.00,WUHU216HW,2013-06-30 21:37:00,
2013-06-30 14:42:00,97.9,34.0,29.47,SW,225,1.6,9.2,11,0.00,,,0.00,WUHU216HW,2013-06-30 21:42:00,
2013-06-30 14:47:00,97.9,34.0,29.47,West,270,3.4,9.2,11,0.00,,,0.00,WUHU216HW,2013-06-30 21:47:00,
2013-06-30 14:52:00,98.1,35.9,29.47,SW,225,4.3,7.6,12,0.00,,,0.00,WUHU216HW,2013-06-30 21:52:00,
2013-06-30 14:57:00,98.1,35.9,29.47,West,270,2.2,4.9,12,0.00,,,0.00,WUHU216HW,2013-06-30 21:57:00,
2013-06-30 15:02:00,97.9,34.0,29.47,SSE,158,6.7,6.9,11,0.00,,,0.00,WUHU216HW,2013-06-30 22:02:00,
2013-06-30 15:07:00,97.9,34.0,29.46,South,180,4.0,6.9,11,0.00,,,0.00,WUHU216HW,2013-06-30 22:07:00,
2013-06-30 15:12:00,97.9,34.0,29.46,SSW,203,2.9,4.7,11,0.00,,,0.00,WUHU216HW,2013-06-30 22:12:00,
2013-06-30 15:17:00,97.9,34.0,29.46,South,180,4.5,6.9,11,0.00,,,0.00,WUHU216HW,2013-06-30 22:17:00,
2013-06-30 15:22:00,97.7,32.0,29.46,SSE,158,4.3,8.3,10,0.00,,,0.00,WUHU216HW,2013-06-30 22:22:00,
2013-06-30 15:27:00,97.7,32.0,29.46,SSE,158,4.0,9.2,10,0.00,,,0.00,WUHU216HW,2013-06-30 22:27:00,
2013-06-30 15:32:00,97.4,33.6,29.46,WNW,293,1.1,9.2,11,0.00,,,0.00,WUHU216HW,2013-06-30 22:32:00,
2013-06-30 15:37:00,97.2,35.2,29.46,SSW,203,2.2,5.4,12,0.00,,,0.00,WUHU216HW,2013-06-30 22:37:00,
2013-06-30 15:42:00,96.8,34.9,29.46,SW,225,2.9,3.4,12,0.00,,,0.00,WUHU216HW,2013-06-30 22:42:00,
2013-06-30 15:47:00,96.8,36.7,29.45,South,180,0.9,4.9,13,0.00,,,0.00,WUHU216HW,2013-06-30 22:47:00,
2013-06-30 15:52:00,96.8,34.9,29.45,South,180,5.1,8.5,12,0.00,,,0.00,WUHU216HW,2013-06-30 22:52:00,
2013-06-30 15:57:00,96.5,36.5,29.45,North,0,1.3,8.5,13,0.00,,,0.00,WUHU216HW,2013-06-30 22:57:00,
2013-06-30 16:02:00,96.3,36.3,29.45,SSW,203,2.5,5.4,13,0.00,,,0.00,WUHU216HW,2013-06-30 23:02:00,
2013-06-30 16:07:00,96.3,38.1,29.44,WNW,293,2.5,5.4,14,0.00,,,0.00,WUHU216HW,2013-06-30 23:07:00,
2013-06-30 16:12:00,96.5,40.1,29.44,NW,315,4.0,6.7,15,0.00,,,0.00,WUHU216HW,2013-06-30 23:12:00,
2013-06-30 16:17:00,96.3,36.3,29.44,SSW,203,1.8,6.7,13,0.00,,,0.00,WUHU216HW,2013-06-30 23:17:00,
2013-06-30 16:22:00,96.3,36.3,29.44,SSE,158,5.4,5.4,13,0.00,,,0.00,WUHU216HW,2013-06-30 23:22:00,
2013-06-30 16:27:00,96.1,36.2,29.44,ENE,68,4.7,7.4,13,0.00,,,0.00,WUHU216HW,2013-06-30 23:27:00,
2013-06-30 16:32:00,95.4,35.7,29.44,SSE,158,5.6,7.4,13,0.00,,,0.00,WUHU216HW,2013-06-30 23:32:00,
2013-06-30 16:37:00,95.4,35.7,29.44,SSW,203,2.9,5.6,13,0.00,,,0.00,WUHU216HW,2013-06-30 23:37:00,
2013-06-30 16:42:00,95.2,39.1,29.44,South,180,1.3,8.3,15,0.00,,,0.00,WUHU216HW,2013-06-30 23:42:00,
2013-06-30 16:47:00,95.0,37.1,29.44,WSW,248,2.0,8.3,14,0.00,,,0.00,WUHU216HW,2013-06-30 23:47:00,
2013-06-30 16:52:00,95.0,35.4,29.43,SE,135,1.3,4.7,13,0.00,,,0.00,WUHU216HW,2013-06-30 23:52:00,
2013-06-30 16:57:00,94.9,35.2,29.43,SSE,158,3.8,4.7,13,0.00,,,0.00,WUHU216HW,2013-06-30 23:57:00,
2013-06-30 17:02:00,94.9,35.2,29.43,SSW,203,2.2,5.6,13,0.00,,,0.00,WUHU216HW,2013-07-01 00:02:00,
2013-06-30 17:07:00,94.9,35.2,29.43,SSW,203,5.1,9.6,13,0.00,,,0.00,WUHU216HW,2013-07-01 00:07:00,
2013-06-30 17:12:00,95.0,38.9,29.43,SSW,203,4.7,9.6,15,0.00,,,0.00,WUHU216HW,2013-07-01 00:12:00,
2013-06-30 17:17:00,95.0,35.4,29.43,South,180,4.0,8.3,13,0.00,,,0.00,WUHU216HW,2013-07-01 00:17:00,
2013-06-30 17:22:00,94.7,38.6,29.43,SE,135,3.1,4.9,15,0.00,,,0.00,WUHU216HW,2013-07-01 00:22:00,
2013-06-30 17:27:00,94.7,38.6,29.43,South,180,3.4,4.9,15,0.00,,,0.00,WUHU216HW,2013-07-01 00:27:00,
2013-06-30 17:32:00,94.7,38.6,29.43,SW,225,0.7,4.3,15,0.00,,,0.00,WUHU216HW,2013-07-01 00:32:00,
2013-06-30 17:37:00,94.5,38.4,29.42,South,180,3.4,4.3,15,0.00,,,0.00,WUHU216HW,2013-07-01 00:37:00,
2013-06-30 17:42:00,94.3,38.4,29.42,NNW,338,1.6,4.0,15,0.00,,,0.00,WUHU216HW,2013-07-01 00:42:00,
2013-06-30 17:47:00,94.3,38.4,29.42,SW,225,2.9,3.4,15,0.00,,,0.00,WUHU216HW,2013-07-01 00:47:00,
2013-06-30 17:52:00,94.0,38.0,29.42,WNW,293,3.4,3.4,15,0.00,,,0.00,WUHU216HW,2013-07-01 00:52:00,
2013-06-30 17:57:00,94.0,38.0,29.42,WSW,248,3.1,4.7,15,0.00,,,0.00,WUHU216HW,2013-07-01 00:57:00,
2013-06-30 18:02:00,94.0,38.0,29.42,WNW,293,0.0,4.7,15,0.00,,,0.00,WUHU216HW,2013-07-01 01:02:00,
2013-06-30 18:07:00,93.8,37.9,29.42,West,270,1.1,2.7,15,0.00,,,0.00,WUHU216HW,2013-07-01 01:07:00,
2013-06-30 18:12:00,93.6,37.7,29.42,NW,315,1.1,2.7,15,0.00,,,0.00,WUHU216HW,2013-07-01 01:12:00,
2013-06-30 18:17:00,93.4,37.6,29.42,SSW,203,1.8,4.0,15,0.00,,,0.00,WUHU216HW,2013-07-01 01:17:00,
2013-06-30 18:22:00,93.4,37.6,29.42,WSW,248,2.7,4.7,15,0.00,,,0.00,WUHU216HW,2013-07-01 01:22:00,
2013-06-30 18:27:00,93.2,37.4,29.42,West,270,0.7,4.7,15,0.00,,,0.00,WUHU216HW,2013-07-01 01:27:00,
2013-06-30 18:32:00,93.2,37.4,29.42,SSW,203,0.4,2.0,15,0.00,,,0.00,WUHU216HW,2013-07-01 01:32:00,
2013-06-30 18:37:00,92.9,37.2,29.41,WSW,248,1.1,2.2,15,0.00,,,0.00,WUHU216HW,2013-07-01 01:37:00,
2013-06-30 18:42:00,92.9,37.2,29.42,WNW,293,2.0,3.1,15,0.00,,,0.00,WUHU216HW,2013-07-01 01:42:00,
2013-06-30 18:47:00,92.7,37.1,29.41,West,270,0.4,3.1,15,0.00,,,0.00,WUHU216HW,2013-07-01 01:47:00,
2013-06-30 18:52:00,92.5,36.9,29.41,North,0,0.4,2.7,15,0.00,,,0.00,WUHU216HW,2013-07-01 01:52:00,
2013-06-30 18:57:00,92.5,38.7,29.41,NW,315,1.1,2.7,16,0.00,,,0.00,WUHU216HW,2013-07-01 01:57:00,
2013-06-30 19:02:00,92.2,38.3,29.41,NW,315,3.6,3.6,16,0.00,,,0.00,WUHU216HW,2013-07-01 02:02:00,
2013-06-30 19:07:00,91.8,38.1,29.41,NW,315,3.4,4.0,16,0.00,,,0.00,WUHU216HW,2013-07-01 02:07:00,
2013-06-30 19:12:00,91.6,39.7,29.41,NW,315,2.9,4.0,17,0.00,,,0.00,WUHU216HW,2013-07-01 02:12:00,
2013-06-30 19:18:00,91.1,39.3,29.41,WNW,293,2.5,4.7,17,0.00,,,0.00,WUHU216HW,2013-07-01 02:18:00,
2013-06-30 19:23:00,90.9,40.9,29.41,WNW,293,2.9,4.7,18,0.00,,,0.00,WUHU216HW,2013-07-01 02:23:00,
2013-06-30 19:28:00,90.4,42.2,29.41,NW,315,2.9,3.6,19,0.00,,,0.00,WUHU216HW,2013-07-01 02:28:00,
2013-06-30 19:33:00,90.0,42.0,29.41,West,270,2.0,3.6,19,0.00,,,0.00,WUHU216HW,2013-07-01 02:33:00,
2013-06-30 19:38:00,89.6,44.5,29.41,NW,315,1.6,3.6,21,0.00,,,0.00,WUHU216HW,2013-07-01 02:38:00,
2013-06-30 19:43:00,89.3,44.2,29.42,NE,45,2.0,3.6,21,0.00,,,0.00,WUHU216HW,2013-07-01 02:43:00,
2013-06-30 19:48:00,88.9,44.9,29.42,West,270,1.1,3.6,22,0.00,,,0.00,WUHU216HW,2013-07-01 02:48:00,
2013-06-30 19:53:00,88.6,45.7,29.42,WNW,293,1.8,3.6,23,0.00,,,0.00,WUHU216HW,2013-07-01 02:53:00,
2013-06-30 19:58:00,88.0,47.4,29.42,NW,315,1.8,3.4,25,0.00,,,0.00,WUHU216HW,2013-07-01 02:58:00,
2013-06-30 20:03:00,87.5,48.0,29.42,West,270,3.4,3.4,26,0.00,,,0.00,WUHU216HW,2013-07-01 03:03:00,
2013-06-30 20:08:00,87.1,49.9,29.42,NNW,338,2.9,3.4,28,0.00,,,0.00,WUHU216HW,2013-07-01 03:08:00,
2013-06-30 20:13:00,86.8,49.6,29.42,West,270,1.3,4.9,28,0.00,,,0.00,WUHU216HW,2013-07-01 03:13:00,
2013-06-30 20:18:00,86.2,50.2,29.42,West,270,1.8,4.9,29,0.00,,,0.00,WUHU216HW,2013-07-01 03:18:00,
2013-06-30 20:23:00,85.9,49.9,29.43,WSW,248,1.6,2.7,29,0.00,,,0.00,WUHU216HW,2013-07-01 03:23:00,
2013-06-30 20:28:00,85.3,50.5,29.43,West,270,3.4,3.4,30,0.00,,,0.00,WUHU216HW,2013-07-01 03:28:00,
2013-06-30 20:33:00,85.0,50.9,29.43,NW,315,2.7,3.4,31,0.00,,,0.00,WUHU216HW,2013-07-01 03:33:00,
2013-06-30 20:38:00,84.4,51.2,29.43,NW,315,2.0,3.4,32,0.00,,,0.00,WUHU216HW,2013-07-01 03:38:00,
2013-06-30 20:43:00,84.1,51.0,29.43,NW,315,0.7,3.4,32,0.00,,,0.00,WUHU216HW,2013-07-01 03:43:00,
2013-06-30 20:48:00,83.7,50.6,29.43,NNW,338,1.8,3.1,32,0.00,,,0.00,WUHU216HW,2013-07-01 03:48:00,
2013-06-30 20:53:00,83.3,50.3,29.43,WNW,293,2.9,3.1,32,0.00,,,0.00,WUHU216HW,2013-07-01 03:53:00,
2013-06-30 20:58:00,83.2,51.0,29.43,NNW,338,3.4,3.4,33,0.00,,,0.00,WUHU216HW,2013-07-01 03:58:00,
2013-06-30 21:03:00,82.8,50.6,29.43,WNW,293,1.6,3.4,33,0.00,,,0.00,WUHU216HW,2013-07-01 04:03:00,
2013-06-30 21:08:00,82.6,51.2,29.43,NW,315,2.0,3.4,34,0.00,,,0.00,WUHU216HW,2013-07-01 04:08:00,
2013-06-30 21:13:00,82.4,51.8,29.43,North,0,1.8,3.6,35,0.00,,,0.00,WUHU216HW,2013-07-01 04:13:00,
2013-06-30 21:18:00,82.1,51.6,29.44,WNW,293,1.3,3.6,35,0.00,,,0.00,WUHU216HW,2013-07-01 04:18:00,
2013-06-30 21:23:00,81.9,51.4,29.44,NNW,338,1.1,3.4,35,0.00,,,0.00,WUHU216HW,2013-07-01 04:23:00,
2013-06-30 21:28:00,81.7,51.2,29.44,North,0,1.1,2.9,35,0.00,,,0.00,WUHU216HW,2013-07-01 04:28:00,
2013-06-30 21:33:00,81.4,52.5,29.44,North,0,1.1,2.2,37,0.00,,,0.00,WUHU216HW,2013-07-01 04:33:00,
2013-06-30 21:38:00,81.4,52.5,29.44,North,0,0.0,1.6,37,0.00,,,0.00,WUHU216HW,2013-07-01 04:38:00,
2013-06-30 21:43:00,81.0,52.9,29.45,North,0,0.0,1.1,38,0.00,,,0.00,WUHU216HW,2013-07-01 04:43:00,
2013-06-30 21:48:00,80.8,52.8,29.45,North,0,0.4,0.4,38,0.00,,,0.00,WUHU216HW,2013-07-01 04:48:00,
2013-06-30 21:53:00,80.6,53.4,29.45,WNW,293,2.2,2.2,39,0.00,,,0.00,WUHU216HW,2013-07-01 04:53:00,
2013-06-30 21:58:00,80.3,53.1,29.45,NW,315,1.8,2.9,39,0.00,,,0.00,WUHU216HW,2013-07-01 04:58:00,
2013-06-30 22:03:00,80.1,52.9,29.45,WNW,293,1.6,4.7,39,0.00,,,0.00,WUHU216HW,2013-07-01 05:03:00,
2013-06-30 22:08:00,79.9,53.6,29.45,NW,315,3.1,4.7,40,0.00,,,0.00,WUHU216HW,2013-07-01 05:08:00,
2013-06-30 22:13:00,79.6,53.2,29.45,NW,315,2.9,3.4,40,0.00,,,0.00,WUHU216HW,2013-07-01 05:13:00,
2013-06-30 22:18:00,79.4,53.6,29.45,WNW,293,2.0,3.4,41,0.00,,,0.00,WUHU216HW,2013-07-01 05:18:00,
2013-06-30 22:23:00,79.2,53.5,29.46,WNW,293,2.2,2.9,41,0.00,,,0.00,WUHU216HW,2013-07-01 05:23:00,
2013-06-30 22:28:00,78.8,53.8,29.46,NW,315,1.3,4.0,42,0.00,,,0.00,WUHU216HW,2013-07-01 05:28:00,
2013-06-30 22:33:00,78.7,53.7,29.46,East,90,1.3,4.0,42,0.00,,,0.00,WUHU216HW,2013-07-01 05:33:00,
2013-06-30 22:38:00,78.5,54.1,29.46,SSE,158,0.7,3.8,43,0.00,,,0.00,WUHU216HW,2013-07-01 05:38:00,
2013-06-30 22:43:00,78.1,53.7,29.46,NE,45,0.0,3.8,43,0.00,,,0.00,WUHU216HW,2013-07-01 05:43:00,
2013-06-30 22:48:00,77.8,53.5,29.46,SE,135,0.0,1.6,43,0.00,,,0.00,WUHU216HW,2013-07-01 05:48:00,
2013-06-30 22:53:00,77.6,53.9,29.47,WSW,248,1.6,1.6,44,0.00,,,0.00,WUHU216HW,2013-07-01 05:53:00,
2013-06-30 22:58:00,77.2,53.6,29.47,SSE,158,0.9,1.6,44,0.00,,,0.00,WUHU216HW,2013-07-01 05:58:00,
2013-06-30 23:03:00,77.0,54.0,29.47,West,270,0.4,1.1,45,0.00,,,0.00,WUHU216HW,2013-07-01 06:03:00,
2013-06-30 23:08:00,76.7,53.6,29.47,SE,135,0.9,1.1,45,0.00,,,0.00,WUHU216HW,2013-07-01 06:08:00,
2013-06-30 23:13:00,76.5,54.1,29.47,West,270,0.7,2.2,46,0.00,,,0.00,WUHU216HW,2013-07-01 06:13:00,
2013-06-30 23:18:00,76.3,54.5,29.47,West,270,0.4,2.2,47,0.00,,,0.00,WUHU216HW,2013-07-01 06:18:00,
2013-06-30 23:23:00,76.1,55.0,29.47,NNW,338,1.1,2.7,48,0.00,,,0.00,WUHU216HW,2013-07-01 06:23:00,
2013-06-30 23:28:00,76.1,55.0,29.47,West,270,2.0,3.4,48,0.00,,,0.00,WUHU216HW,2013-07-01 06:28:00,
2013-06-30 23:33:00,76.0,55.4,29.47,WNW,293,1.1,3.4,49,0.00,,,0.00,WUHU216HW,2013-07-01 06:33:00,
2013-06-30 23:43:00,76.0,56.1,29.47,NW,315,1.8,3.1,50,0.00,,,0.00,WUHU216HW,2013-07-01 06:43:00,
2013-06-30 23:48:00,75.6,55.8,29.47,NW,315,2.5,2.7,50,0.00,,,0.00,WUHU216HW,2013-07-01 06:48:00,
2013-06-30 23:53:00,75.4,56.1,29.48,NW,315,1.8,2.5,51,0.00,,,0.00,WUHU216HW,2013-07-01 06:53:00,
2013-06-30 23:58:00,75.2,56.0,29.48,NW,315,0.9,1.8,51,0.00,,,0.00,WUHU216HW,2013-07-01 06:58:00,